Time;durP1;ratioP1;P1;durP2;ratioP2;P2;SDS_P1;SDS_P2;PMS_P1;PMS_P2;Temp;Humidity;BMP_temperature;BMP_pressure;BME280_temperature;BME280_humidity;BME280_pressure;Samples;Min_cycle;Max_cycle;Signal;HPM_P1;HPM_P2
2022/01/20 00:01:44;;;;;;;22.33;4.80;;;4.30;99.90;;;;;;5044152;28;20284;-66
2022/01/20 00:04:19;;;;;;;20.13;4.70;;;4.20;99.90;;;;;;5037816;28;20210;-66
2022/01/20 00:26:54;;;;;;;19.50;4.57;;;3.80;99.90;;;;;;5050163;28;20209;-66
2022/01/20 00:29:28;;;;;;;18.90;5.00;;;3.70;99.90;;;;;;5048049;28;20706;-66
2022/01/20 00:32:09;;;;;;;19.03;4.93;;;3.60;99.90;;;;;;5048751;28;20193;-66
2022/01/20 00:35:10;;;;;;;21.20;4.90;;;3.50;99.90;;;;;;5048735;28;20291;-66
2022/01/20 00:37:37;;;;;;;18.93;4.67;;;3.40;99.90;;;;;;5047010;28;20258;-66
2022/01/20 00:40:09;;;;;;;26.87;5.37;;;3.30;99.90;;;;;;5048336;28;20232;-66
2022/01/20 00:42:37;;;;;;;28.97;4.40;;;3.20;99.90;;;;;;5045797;28;20267;-66
2022/01/20 00:45:07;;;;;;;23.73;5.07;;;3.30;99.90;;;;;;5045527;28;20196;-66
2022/01/20 00:47:37;;;;;;;27.33;4.33;;;3.30;99.90;;;;;;5042588;28;20306;-65
2022/01/20 00:50:10;;;;;;;22.60;4.40;;;3.30;99.90;;;;;;5047151;28;20228;-66
2022/01/20 00:52:38;;;;;;;20.97;4.50;;;3.30;99.90;;;;;;5049161;28;20618;-66
2022/01/20 00:55:09;;;;;;;27.27;4.90;;;3.40;99.90;;;;;;5045508;28;20287;-66
2022/01/20 00:57:38;;;;;;;23.33;5.30;;;3.50;99.90;;;;;;5045339;28;20280;-66
2022/01/20 01:00:09;;;;;;;21.67;4.27;;;3.50;99.90;;;;;;5047649;28;20193;-66
2022/01/20 01:02:40;;;;;;;24.87;3.63;;;3.60;99.90;;;;;;5037229;28;20205;-66
2022/01/20 01:06:00;;;;;;;23.30;3.70;;;3.70;99.90;;;;;;5046309;28;20203;-66
2022/01/20 01:08:29;;;;;;;19.13;3.17;;;3.80;99.90;;;;;;5040949;28;20197;-66
2022/01/20 01:10:58;;;;;;;19.77;4.10;;;3.80;99.90;;;;;;5044794;28;20201;-66
2022/01/20 01:13:28;;;;;;;29.23;3.70;;;3.80;99.90;;;;;;5043352;28;20275;-66
2022/01/20 01:15:56;;;;;;;29.80;3.80;;;3.70;99.90;;;;;;5045164;28;20291;-66
2022/01/20 01:21:16;;;;;;;26.97;4.43;;;3.90;99.90;;;;;;5047105;28;20263;-66
2022/01/20 01:23:46;;;;;;;26.30;4.97;;;4.00;99.90;;;;;;5039916;28;20193;-66
2022/01/20 01:26:20;;;;;;;19.57;3.57;;;4.00;99.90;;;;;;5045140;28;20224;-66
2022/01/20 01:28:49;;;;;;;16.93;3.93;;;4.00;99.90;;;;;;5047833;28;20224;-65
2022/01/20 01:31:32;;;;;;;11.77;2.87;;;4.00;99.90;;;;;;5041544;28;20258;-66
2022/01/20 01:34:04;;;;;;;11.00;2.70;;;4.00;99.90;;;;;;5022378;28;20283;-66
2022/01/20 01:36:47;;;;;;;12.33;2.57;;;4.00;99.90;;;;;;5053322;28;20197;-66
2022/01/20 01:39:16;;;;;;;16.20;2.93;;;4.00;99.90;;;;;;5042571;28;20260;-66
2022/01/20 01:41:46;;;;;;;9.73;2.30;;;4.00;99.90;;;;;;5045060;28;20992;-66
2022/01/20 01:44:21;;;;;;;10.63;2.40;;;4.00;99.90;;;;;;5045861;28;20740;-66
2022/01/20 01:46:52;;;;;;;16.27;2.50;;;4.00;99.90;;;;;;5051563;28;20204;-66
2022/01/20 01:49:21;;;;;;;9.37;2.50;;;4.00;99.90;;;;;;5045852;28;20710;-66
2022/01/20 01:51:50;;;;;;;6.80;2.37;;;4.00;99.90;;;;;;5046508;28;20682;-66
2022/01/20 01:54:19;;;;;;;7.53;2.50;;;4.00;99.90;;;;;;5031138;28;20199;-65
2022/01/20 01:56:49;;;;;;;8.73;2.43;;;4.00;99.90;;;;;;5038101;28;20199;-66
2022/01/20 01:59:18;;;;;;;10.90;2.30;;;3.90;99.90;;;;;;5046753;28;20232;-66
2022/01/20 02:01:47;;;;;;;6.50;2.33;;;3.90;99.90;;;;;;5039545;28;20633;-66
2022/01/20 02:04:18;;;;;;;9.87;2.40;;;3.90;99.90;;;;;;5044022;28;20199;-66
2022/01/20 02:07:18;;;;;;;7.80;2.33;;;3.80;99.90;;;;;;5041664;28;20283;-66
2022/01/20 02:18:37;;;;;;;6.87;2.00;;;3.50;99.90;;;;;;5047469;28;20283;-67
2022/01/20 02:21:07;;;;;;;6.40;1.80;;;3.40;99.90;;;;;;5032080;28;20207;-66
2022/01/20 02:23:36;;;;;;;9.07;2.10;;;3.40;99.90;;;;;;5049815;28;20239;-66
2022/01/20 02:26:04;;;;;;;7.80;2.20;;;3.30;99.90;;;;;;5045497;28;20283;-66
2022/01/20 02:28:33;;;;;;;16.30;2.10;;;3.20;99.90;;;;;;5045932;28;20213;-66
2022/01/20 02:31:02;;;;;;;8.90;2.17;;;3.10;99.90;;;;;;5045541;28;20243;-66
2022/01/20 02:33:31;;;;;;;6.23;2.03;;;3.10;99.90;;;;;;5047319;28;20729;-66
2022/01/20 02:36:03;;;;;;;7.07;2.10;;;3.10;99.90;;;;;;5042266;28;20231;-66
2022/01/20 02:38:37;;;;;;;5.87;1.90;;;3.00;99.90;;;;;;5046613;28;20272;-66
2022/01/20 02:46:40;;;;;;;11.17;2.40;;;2.80;99.90;;;;;;5039608;28;20684;-66
2022/01/20 02:49:13;;;;;;;4.57;2.57;;;2.80;99.90;;;;;;5047600;28;20576;-66
2022/01/20 02:51:48;;;;;;;10.60;2.70;;;2.80;99.90;;;;;;5025718;28;20255;-66
2022/01/20 02:54:19;;;;;;;6.40;2.60;;;2.70;99.90;;;;;;5042514;28;20294;-66
2022/01/20 02:56:48;;;;;;;13.27;2.60;;;2.70;99.90;;;;;;5028867;28;20189;-66
2022/01/20 02:59:17;;;;;;;9.77;3.20;;;2.70;99.90;;;;;;5047514;28;20193;-66
2022/01/20 03:01:45;;;;;;;11.23;3.33;;;2.80;99.90;;;;;;5043360;28;20296;-66
2022/01/20 03:04:15;;;;;;;14.93;3.13;;;2.90;99.90;;;;;;5040102;28;20284;-66
2022/01/20 03:06:44;;;;;;;11.50;3.30;;;3.10;99.90;;;;;;5042264;28;20200;-66
2022/01/20 03:09:12;;;;;;;14.03;3.70;;;3.10;99.90;;;;;;5042353;28;20244;-67
2022/01/20 03:11:42;;;;;;;11.07;3.50;;;3.20;99.90;;;;;;5040966;28;20239;-66
2022/01/20 03:14:11;;;;;;;20.63;4.10;;;3.20;99.90;;;;;;5043209;28;20676;-66
2022/01/20 03:16:39;;;;;;;18.50;3.67;;;3.50;99.90;;;;;;5042082;28;20300;-66
2022/01/20 03:19:08;;;;;;;18.43;3.90;;;3.60;99.90;;;;;;5040761;28;20201;-66
2022/01/20 03:21:36;;;;;;;10.80;3.27;;;3.70;99.90;;;;;;5044091;28;20235;-65
2022/01/20 03:24:07;;;;;;;18.37;3.47;;;3.70;99.90;;;;;;5039653;28;20224;-66
2022/01/20 03:26:36;;;;;;;13.27;2.80;;;3.70;99.90;;;;;;5041839;28;20189;-65
2022/01/20 03:29:07;;;;;;;13.60;2.90;;;3.70;99.90;;;;;;5043638;28;20762;-66
2022/01/20 03:31:35;;;;;;;7.83;2.60;;;3.70;99.90;;;;;;5045102;28;20197;-65
2022/01/20 03:34:05;;;;;;;16.23;3.13;;;3.80;99.90;;;;;;5038338;28;20247;-66
2022/01/20 03:36:34;;;;;;;14.90;3.33;;;3.70;99.90;;;;;;5047750;28;20197;-67
2022/01/20 03:39:04;;;;;;;13.17;2.70;;;3.70;99.90;;;;;;5048957;28;20867;-66
2022/01/20 03:41:33;;;;;;;15.13;3.20;;;3.70;99.90;;;;;;5057136;28;20300;-66
2022/01/20 03:44:02;;;;;;;8.77;2.83;;;3.70;99.90;;;;;;5047938;28;20201;-66
2022/01/20 03:46:31;;;;;;;10.50;3.00;;;3.70;99.90;;;;;;5050062;28;20229;-66
2022/01/20 03:49:08;;;;;;;13.53;2.90;;;3.70;99.90;;;;;;5048205;28;20211;-66
2022/01/20 03:51:37;;;;;;;6.43;3.10;;;3.70;99.90;;;;;;5043249;28;20716;-66
2022/01/20 03:54:06;;;;;;;12.50;3.33;;;3.70;99.90;;;;;;5047706;28;20310;-66
2022/01/20 03:56:34;;;;;;;11.30;2.53;;;3.70;99.90;;;;;;5050138;28;20524;-66
2022/01/20 03:59:02;;;;;;;13.17;2.93;;;3.70;99.90;;;;;;5065391;28;20208;-66
2022/01/20 04:01:32;;;;;;;8.03;2.53;;;3.70;99.90;;;;;;5063807;28;20286;-66
2022/01/20 04:04:01;;;;;;;10.87;3.13;;;3.70;99.90;;;;;;5054534;28;20287;-66
2022/01/20 04:06:30;;;;;;;13.47;3.37;;;3.70;99.90;;;;;;5049707;28;20228;-66
2022/01/20 04:08:59;;;;;;;12.40;3.10;;;3.70;99.90;;;;;;5047172;28;20232;-66
2022/01/20 04:11:29;;;;;;;9.30;3.03;;;3.70;99.90;;;;;;5049087;28;20232;-66
2022/01/20 04:14:45;;;;;;;11.10;3.23;;;3.70;99.90;;;;;;5048394;28;20200;-66
2022/01/20 04:18:01;;;;;;;15.10;3.27;;;3.70;99.90;;;;;;5047548;28;20279;-66
2022/01/20 04:21:09;;;;;;;15.90;3.83;;;3.70;99.90;;;;;;5053950;28;20196;-67
2022/01/20 04:24:18;;;;;;;14.87;3.70;;;3.70;99.90;;;;;;5041936;28;20208;-66
2022/01/20 04:27:30;;;;;;;18.30;3.60;;;3.60;99.90;;;;;;5046634;28;20192;-66
2022/01/20 04:30:38;;;;;;;11.13;3.20;;;3.60;99.90;;;;;;5048349;28;20205;-66
2022/01/20 04:33:49;;;;;;;12.83;3.80;;;3.50;99.90;;;;;;5051228;28;20248;-66
2022/01/20 04:36:58;;;;;;;14.60;4.37;;;3.50;99.90;;;;;;5050174;28;20253;-66
2022/01/20 04:40:08;;;;;;;14.53;3.40;;;3.40;99.90;;;;;;5050866;28;20702;-66
2022/01/20 04:43:16;;;;;;;14.90;4.27;;;3.40;99.90;;;;;;5046047;28;20208;-66
2022/01/20 04:46:33;;;;;;;17.67;4.23;;;3.40;99.90;;;;;;5042442;28;20553;-66
2022/01/20 05:00:00;;;;;;;13.00;4.17;;;3.40;99.90;;;;;;5041497;28;20208;-66
2022/01/20 05:03:08;;;;;;;20.60;4.70;;;3.40;99.90;;;;;;5047386;28;20596;-65
2022/01/20 05:06:18;;;;;;;12.33;3.57;;;3.40;99.90;;;;;;5049217;28;20211;-66
2022/01/20 05:09:22;;;;;;;20.07;4.43;;;3.70;99.90;;;;;;5034107;28;20301;-66
2022/01/20 05:12:15;;;;;;;20.30;4.27;;;3.80;99.90;;;;;;5043359;28;20205;-66
2022/01/20 05:15:03;;;;;;;16.50;3.87;;;3.80;99.90;;;;;;5040049;28;20668;-66
2022/01/20 05:17:52;;;;;;;24.77;3.70;;;3.80;99.90;;;;;;5043819;28;20255;-66
2022/01/20 05:20:40;;;;;;;16.07;3.60;;;3.80;99.90;;;;;;5049135;28;21559;-66
2022/01/20 05:23:30;;;;;;;18.30;3.87;;;3.80;99.90;;;;;;5040836;28;20193;-66
2022/01/20 05:26:18;;;;;;;20.87;4.47;;;3.90;99.90;;;;;;5041141;28;20716;-66
2022/01/20 05:29:06;;;;;;;22.50;3.57;;;3.90;99.90;;;;;;5040266;28;20213;-66
2022/01/20 05:31:55;;;;;;;19.53;3.40;;;3.90;99.90;;;;;;5045872;28;20208;-66
2022/01/20 05:34:43;;;;;;;28.53;7.07;;;3.90;99.90;;;;;;5047192;28;20192;-66
2022/01/20 05:37:32;;;;;;;18.20;5.37;;;3.90;99.90;;;;;;5046201;28;20193;-66
2022/01/20 05:40:22;;;;;;;32.93;11.23;;;3.90;99.90;;;;;;5045657;28;20547;-65
2022/01/20 05:43:12;;;;;;;18.67;4.90;;;3.90;99.90;;;;;;5045572;28;20428;-66
2022/01/20 05:46:02;;;;;;;20.90;4.77;;;3.80;99.90;;;;;;5043200;28;20197;-66
2022/01/20 05:48:51;;;;;;;10.30;3.33;;;3.80;99.90;;;;;;5046615;28;20288;-66
2022/01/20 05:51:40;;;;;;;18.70;5.07;;;3.80;99.90;;;;;;5042015;28;20211;-66
2022/01/20 05:54:28;;;;;;;18.07;5.03;;;3.80;99.90;;;;;;5041200;28;20219;-66
2022/01/20 05:57:18;;;;;;;23.67;4.40;;;3.80;99.90;;;;;;5042310;28;20235;-66
2022/01/20 06:00:09;;;;;;;17.83;4.00;;;3.90;99.90;;;;;;5043875;28;20296;-66
2022/01/20 06:06:04;;;;;;;15.93;4.00;;;3.90;99.90;;;;;;5045954;28;20195;-66
2022/01/20 06:08:53;;;;;;;19.10;4.10;;;4.00;99.90;;;;;;5043523;28;20205;-66
2022/01/20 06:11:42;;;;;;;20.30;4.40;;;4.00;99.90;;;;;;5041712;28;20197;-66
2022/01/20 06:14:31;;;;;;;16.87;4.27;;;4.00;99.90;;;;;;5046945;28;20215;-66
2022/01/20 06:17:27;;;;;;;11.63;3.60;;;4.00;99.90;;;;;;5045632;28;20204;-66
2022/01/20 06:20:16;;;;;;;14.63;3.57;;;4.00;99.90;;;;;;5048192;28;20204;-66
2022/01/20 06:23:06;;;;;;;19.13;3.43;;;4.10;99.90;;;;;;5045445;28;20678;-66
2022/01/20 06:25:54;;;;;;;14.00;3.17;;;4.10;99.90;;;;;;5044277;28;20197;-66
2022/01/20 06:28:43;;;;;;;12.87;3.10;;;4.00;99.90;;;;;;5042198;28;20207;-66
2022/01/20 06:31:33;;;;;;;14.03;3.17;;;4.00;99.90;;;;;;5046929;28;20208;-66
2022/01/20 06:34:22;;;;;;;14.73;3.30;;;4.00;99.90;;;;;;5040724;28;20323;-66
2022/01/20 06:37:10;;;;;;;10.13;2.50;;;4.00;99.90;;;;;;5042960;28;20219;-66
2022/01/20 06:39:58;;;;;;;17.63;3.10;;;3.90;99.90;;;;;;5039477;28;20200;-66
2022/01/20 06:42:47;;;;;;;14.00;2.70;;;4.00;99.90;;;;;;5040191;28;20205;-66
2022/01/20 06:45:35;;;;;;;10.07;3.00;;;4.00;99.90;;;;;;5042276;28;20201;-65
2022/01/20 06:48:25;;;;;;;18.77;2.93;;;4.10;99.90;;;;;;5038037;28;20297;-66
2022/01/20 06:51:13;;;;;;;13.53;3.10;;;4.10;99.90;;;;;;5043930;28;20216;-66
2022/01/20 06:53:42;;;;;;;19.90;2.90;;;4.20;99.90;;;;;;5039463;28;20590;-66
2022/01/20 06:56:28;;;;;;;12.17;2.97;;;4.20;99.90;;;;;;5039478;28;20470;-66
2022/01/20 06:59:48;;;;;;;12.83;2.20;;;4.20;99.90;;;;;;5042389;28;20204;-66
2022/01/20 07:02:42;;;;;;;10.77;2.27;;;4.10;99.90;;;;;;5028355;28;20201;-66
2022/01/20 07:05:13;;;;;;;8.70;2.77;;;4.00;99.90;;;;;;5040021;28;20193;-66
2022/01/20 07:07:42;;;;;;;9.03;2.20;;;4.00;99.90;;;;;;5051127;28;20289;-66
2022/01/20 07:10:13;;;;;;;11.27;2.47;;;3.90;99.90;;;;;;5046912;28;20640;-66
2022/01/20 07:12:42;;;;;;;8.43;2.20;;;3.80;99.90;;;;;;5048154;28;20284;-66
2022/01/20 07:15:13;;;;;;;11.37;2.53;;;3.80;99.90;;;;;;5048474;28;20296;-66
2022/01/20 07:17:41;;;;;;;6.03;2.37;;;3.80;99.90;;;;;;5048374;28;20216;-66
2022/01/20 07:20:13;;;;;;;8.70;2.73;;;3.80;99.90;;;;;;5050155;28;20219;-66
2022/01/20 07:22:42;;;;;;;10.07;2.83;;;3.70;99.90;;;;;;5044001;28;20195;-66
2022/01/20 07:25:10;;;;;;;9.03;2.60;;;3.70;99.90;;;;;;5052334;28;20572;-66
2022/01/20 07:27:38;;;;;;;16.70;2.63;;;3.70;99.90;;;;;;5052971;28;20508;-66
2022/01/20 07:30:27;;;;;;;15.07;2.30;;;3.70;99.90;;;;;;5043252;28;20201;-66
2022/01/20 07:32:55;;;;;;;9.03;2.40;;;3.70;99.90;;;;;;5041924;28;20324;-66
2022/01/20 07:35:25;;;;;;;18.00;2.87;;;3.70;99.90;;;;;;5048011;28;20192;-66
2022/01/20 07:37:54;;;;;;;19.97;2.97;;;3.70;99.90;;;;;;5047911;28;20208;-66
2022/01/20 07:40:22;;;;;;;20.93;3.17;;;3.80;99.90;;;;;;5051161;28;20738;-66
2022/01/20 07:42:51;;;;;;;11.43;2.63;;;3.80;99.90;;;;;;5043608;28;20236;-66
2022/01/20 07:45:21;;;;;;;14.73;2.63;;;3.70;99.90;;;;;;5040706;28;20243;-65
2022/01/20 07:47:49;;;;;;;12.77;2.60;;;3.70;99.90;;;;;;5047054;28;20274;-65
2022/01/20 07:50:18;;;;;;;21.47;3.40;;;3.60;99.90;;;;;;5046105;28;20274;-66
2022/01/20 07:52:48;;;;;;;12.77;2.87;;;3.50;99.90;;;;;;5046524;28;20196;-66
2022/01/20 07:55:16;;;;;;;13.60;3.20;;;3.40;99.90;;;;;;5047455;28;20221;-66
2022/01/20 07:57:44;;;;;;;12.30;2.80;;;3.40;99.90;;;;;;5045142;28;20284;-66
2022/01/20 08:00:15;;;;;;;13.73;3.30;;;3.30;99.90;;;;;;5053654;28;20302;-67
2022/01/20 08:02:43;;;;;;;15.27;2.87;;;3.20;99.90;;;;;;5042850;28;20189;-66
2022/01/20 08:05:11;;;;;;;17.70;3.70;;;3.20;99.90;;;;;;5044336;28;20204;-66
2022/01/20 08:07:40;;;;;;;12.37;2.90;;;3.20;99.90;;;;;;5048885;28;20655;-66
2022/01/20 08:10:12;;;;;;;12.90;3.00;;;3.20;99.90;;;;;;5049004;28;20212;-66
2022/01/20 08:12:40;;;;;;;14.97;3.43;;;3.30;99.90;;;;;;5044221;28;20624;-66
2022/01/20 08:15:12;;;;;;;18.83;3.40;;;3.30;99.90;;;;;;5048423;28;20707;-66
2022/01/20 08:17:40;;;;;;;18.00;3.73;;;3.30;99.90;;;;;;5046913;28;20296;-66
2022/01/20 08:20:12;;;;;;;20.90;4.50;;;3.40;99.90;;;;;;5053300;28;20201;-66
2022/01/20 08:22:40;;;;;;;22.30;5.10;;;3.50;99.90;;;;;;5047409;28;20193;-66
2022/01/20 08:25:13;;;;;;;26.43;4.67;;;3.50;99.90;;;;;;5049973;28;20197;-65
2022/01/20 08:27:42;;;;;;;21.57;4.13;;;3.60;99.90;;;;;;5050371;28;20216;-66
2022/01/20 08:30:13;;;;;;;15.33;4.90;;;3.60;99.90;;;;;;5052861;28;20223;-66
2022/01/20 08:32:43;;;;;;;23.60;4.63;;;3.60;99.90;;;;;;5040612;28;20295;-66
2022/01/20 08:35:12;;;;;;;18.47;4.13;;;3.60;99.90;;;;;;5045803;28;20212;-66
2022/01/20 08:37:44;;;;;;;27.87;5.03;;;3.70;99.90;;;;;;5045474;28;20229;-66
2022/01/20 08:40:16;;;;;;;23.80;4.30;;;3.70;99.90;;;;;;5041138;28;20231;-66
2022/01/20 08:42:47;;;;;;;20.23;4.83;;;3.80;99.90;;;;;;5044611;28;20205;-66
2022/01/20 08:45:18;;;;;;;25.73;4.30;;;3.80;99.90;;;;;;5050388;28;20295;-66
2022/01/20 08:47:46;;;;;;;22.13;4.77;;;3.80;99.90;;;;;;5042863;28;20194;-66
2022/01/20 08:50:14;;;;;;;17.67;4.17;;;3.90;99.90;;;;;;5039407;28;20952;-66
2022/01/20 08:52:46;;;;;;;19.10;3.90;;;3.90;99.90;;;;;;5042969;28;20189;-66
2022/01/20 08:55:17;;;;;;;19.60;3.57;;;4.00;99.90;;;;;;5048128;28;20656;-66
2022/01/20 08:57:46;;;;;;;19.40;3.70;;;4.00;99.90;;;;;;5052760;28;20204;-66
2022/01/20 09:00:17;;;;;;;12.40;3.93;;;4.10;99.90;;;;;;5047083;28;20232;-66
2022/01/20 09:02:46;;;;;;;19.00;4.17;;;4.20;99.90;;;;;;5046498;28;20193;-66
2022/01/20 09:05:15;;;;;;;21.83;3.80;;;4.30;99.90;;;;;;5040080;28;20197;-66
2022/01/20 09:07:43;;;;;;;15.23;4.23;;;4.30;99.90;;;;;;5051314;28;20205;-66
2022/01/20 09:10:18;;;;;;;19.53;4.07;;;4.30;99.90;;;;;;5045077;28;20205;-66
2022/01/20 09:15:36;;;;;;;11.73;3.80;;;4.40;99.90;;;;;;5042762;28;20639;-65
2022/01/20 09:18:08;;;;;;;14.77;3.83;;;4.40;99.90;;;;;;5044413;28;20196;-66
2022/01/20 09:20:39;;;;;;;24.30;4.80;;;4.40;99.90;;;;;;5048675;28;20196;-66
2022/01/20 09:23:08;;;;;;;16.53;3.17;;;4.40;99.90;;;;;;5042445;28;20224;-66
2022/01/20 09:25:38;;;;;;;14.93;3.07;;;4.50;99.90;;;;;;5043549;28;20276;-66
2022/01/20 09:28:09;;;;;;;16.77;3.07;;;4.50;99.90;;;;;;5046368;28;20276;-66
2022/01/20 09:30:40;;;;;;;14.80;4.00;;;4.60;99.90;;;;;;5046565;28;20200;-66
2022/01/20 09:33:17;;;;;;;18.00;4.27;;;4.70;99.90;;;;;;5045025;28;20228;-66
2022/01/20 09:35:46;;;;;;;11.70;3.40;;;4.80;99.90;;;;;;5041382;28;20197;-66
2022/01/20 09:38:15;;;;;;;16.00;3.50;;;4.80;99.90;;;;;;5043078;28;20229;-66
2022/01/20 09:40:44;;;;;;;17.27;4.00;;;5.00;99.90;;;;;;5043019;28;20258;-66
2022/01/20 09:43:15;;;;;;;10.53;3.30;;;5.10;99.90;;;;;;5044804;28;20200;-66
2022/01/20 09:45:45;;;;;;;12.33;3.33;;;5.20;99.90;;;;;;5044378;28;20220;-66
2022/01/20 09:48:13;;;;;;;18.73;3.10;;;5.20;99.90;;;;;;5054742;28;20236;-66
2022/01/20 09:50:42;;;;;;;11.47;2.80;;;5.20;99.90;;;;;;5042408;28;20217;-66
2022/01/20 09:53:11;;;;;;;11.10;2.47;;;5.10;99.90;;;;;;5045767;28;20204;-66
2022/01/20 09:55:39;;;;;;;8.50;2.40;;;5.20;99.90;;;;;;5053961;28;20208;-66
2022/01/20 09:58:09;;;;;;;16.90;3.27;;;5.30;99.90;;;;;;5044892;28;20197;-66
2022/01/20 10:00:41;;;;;;;7.20;2.53;;;5.40;99.90;;;;;;5042137;28;20192;-66
2022/01/20 10:03:13;;;;;;;9.00;2.60;;;5.40;99.90;;;;;;5045575;28;20263;-67
2022/01/20 10:05:43;;;;;;;11.70;3.20;;;5.50;99.90;;;;;;5045649;28;20192;-66
2022/01/20 10:08:14;;;;;;;8.90;2.70;;;5.70;99.90;;;;;;5028280;28;20198;-66
2022/01/20 10:10:49;;;;;;;8.30;2.93;;;6.00;99.90;;;;;;5041137;28;20300;-66
2022/01/20 10:13:21;;;;;;;9.67;3.50;;;6.40;99.90;;;;;;5042611;28;20195;-67
2022/01/20 10:16:04;;;;;;;9.20;2.80;;;6.90;99.90;;;;;;5038621;28;20228;-67
2022/01/20 10:18:35;;;;;;;14.70;3.20;;;7.20;99.90;;;;;;5039035;28;20314;-67
2022/01/20 10:21:06;;;;;;;9.93;3.43;;;7.30;99.90;;;;;;5042836;28;20317;-67
2022/01/20 10:23:38;;;;;;;7.97;2.90;;;7.10;99.90;;;;;;5059778;28;20249;-66
2022/01/20 10:26:09;;;;;;;5.73;2.40;;;6.70;99.90;;;;;;5046913;28;20699;-67
2022/01/20 10:28:54;;;;;;;8.33;2.30;;;6.30;99.90;;;;;;5044008;28;20691;-66
2022/01/20 10:31:39;;;;;;;11.87;2.23;;;6.00;99.90;;;;;;5037945;28;20308;-66
2022/01/20 10:34:18;;;;;;;10.27;2.50;;;5.80;99.90;;;;;;5040440;28;20233;-66
2022/01/20 10:36:52;;;;;;;5.03;1.93;;;5.80;99.90;;;;;;5060481;28;20668;-66
2022/01/20 10:39:28;;;;;;;11.40;2.70;;;5.70;99.90;;;;;;5039770;28;20247;-66
2022/01/20 10:42:01;;;;;;;10.97;3.00;;;5.70;99.90;;;;;;5049949;28;20197;-66
2022/01/20 10:44:40;;;;;;;6.70;2.63;;;5.80;99.90;;;;;;5046501;28;20226;-66
2022/01/20 10:47:26;;;;;;;11.67;2.73;;;5.90;99.90;;;;;;5047010;28;20192;-66
2022/01/20 10:49:56;;;;;;;8.40;2.47;;;6.10;99.90;;;;;;5043520;28;20741;-66
2022/01/20 10:52:35;;;;;;;12.97;3.17;;;6.30;99.90;;;;;;5042308;28;20240;-66
2022/01/20 10:55:07;;;;;;;13.87;2.50;;;6.50;99.90;;;;;;5048518;28;20196;-67
2022/01/20 10:57:35;;;;;;;11.33;2.70;;;6.70;99.90;;;;;;5042802;28;20299;-65
2022/01/20 11:00:08;;;;;;;10.27;2.70;;;6.70;99.90;;;;;;5048327;28;20197;-66
2022/01/20 11:02:38;;;;;;;11.20;2.83;;;6.70;99.90;;;;;;5050181;28;20189;-66
2022/01/20 11:05:07;;;;;;;10.40;2.47;;;7.00;99.90;;;;;;5046274;28;20207;-66
2022/01/20 11:07:37;;;;;;;11.17;2.53;;;7.00;99.90;;;;;;5053742;28;20199;-66
2022/01/20 11:10:07;;;;;;;10.30;2.60;;;7.00;99.90;;;;;;5048940;28;20200;-66
2022/01/20 11:12:36;;;;;;;12.23;2.77;;;6.80;99.90;;;;;;5051171;28;20228;-66
2022/01/20 11:15:08;;;;;;;12.30;2.73;;;6.80;99.90;;;;;;5048822;28;20193;-66
2022/01/20 11:17:40;;;;;;;10.33;2.40;;;7.00;99.90;;;;;;5044204;28;20196;-66
2022/01/20 11:20:11;;;;;;;14.83;3.17;;;7.30;99.90;;;;;;5049188;28;20197;-67
2022/01/20 11:22:52;;;;;;;11.87;2.90;;;7.30;99.90;;;;;;5053098;28;20188;-67
2022/01/20 11:25:22;;;;;;;10.10;2.60;;;7.30;99.90;;;;;;5048966;28;20242;-66
2022/01/20 11:27:53;;;;;;;9.93;2.93;;;7.20;99.90;;;;;;5044976;28;20195;-66
2022/01/20 11:30:26;;;;;;;13.60;2.90;;;7.10;99.90;;;;;;5046349;28;20545;-67
2022/01/20 11:33:01;;;;;;;8.43;2.80;;;7.00;99.90;;;;;;5049449;28;20765;-66
2022/01/20 11:35:41;;;;;;;13.17;3.50;;;6.70;99.90;;;;;;5049175;28;20196;-66
2022/01/20 11:38:11;;;;;;;12.17;2.83;;;6.40;99.90;;;;;;5047973;28;20623;-66
2022/01/20 11:40:58;;;;;;;9.23;2.40;;;5.90;99.90;;;;;;5050198;28;20663;-66
2022/01/20 11:43:35;;;;;;;13.03;2.27;;;5.40;99.90;;;;;;5049427;28;20200;-67
2022/01/20 11:46:13;;;;;;;11.53;2.57;;;5.00;99.90;;;;;;5045316;28;20284;-66
2022/01/20 11:48:56;;;;;;;9.33;1.90;;;4.80;99.90;;;;;;5043502;28;20212;-66
2022/01/20 11:51:27;;;;;;;5.13;1.80;;;4.70;99.90;;;;;;5044980;28;20286;-66
2022/01/20 11:54:30;;;;;;;14.10;2.13;;;4.70;99.90;;;;;;5039424;28;20189;-66
2022/01/20 11:57:08;;;;;;;7.07;2.00;;;4.80;99.90;;;;;;5042037;28;20595;-67
2022/01/20 11:59:38;;;;;;;11.47;1.97;;;4.90;99.90;;;;;;5046090;28;20185;-66
2022/01/20 12:02:07;;;;;;;14.33;2.60;;;5.00;99.90;;;;;;5042548;28;20184;-66
2022/01/20 12:04:40;;;;;;;6.73;2.17;;;5.10;99.90;;;;;;5041632;28;20185;-66
2022/01/20 12:07:10;;;;;;;7.07;2.57;;;5.20;99.90;;;;;;5042054;28;20208;-67
2022/01/20 12:09:40;;;;;;;9.63;2.80;;;5.20;99.90;;;;;;5043627;28;20725;-66
2022/01/20 12:12:22;;;;;;;9.57;2.40;;;5.30;99.90;;;;;;5051736;28;20270;-67
2022/01/20 12:14:51;;;;;;;12.23;2.70;;;5.50;99.90;;;;;;5043828;28;20185;-66
2022/01/20 12:17:21;;;;;;;9.53;2.40;;;5.50;99.90;;;;;;5042655;28;20188;-66
2022/01/20 12:19:56;;;;;;;12.37;2.50;;;5.60;99.90;;;;;;5056843;28;20967;-67
2022/01/20 12:22:24;;;;;;;10.43;2.30;;;5.90;99.90;;;;;;5047396;28;20670;-67
2022/01/20 12:24:54;;;;;;;8.97;2.47;;;6.20;99.90;;;;;;5050067;28;20663;-67
2022/01/20 12:27:24;;;;;;;15.37;2.30;;;6.50;99.90;;;;;;5044469;28;20553;-66
2022/01/20 12:29:54;;;;;;;8.67;2.70;;;6.70;99.90;;;;;;5044133;28;20224;-67
2022/01/20 12:32:24;;;;;;;9.83;2.40;;;7.10;99.90;;;;;;5046145;28;20614;-67
2022/01/20 12:35:02;;;;;;;8.53;2.30;;;7.40;99.90;;;;;;5045693;28;20193;-67
2022/01/20 12:37:35;;;;;;;7.70;2.20;;;7.70;99.90;;;;;;5047287;28;20184;-66
2022/01/20 12:40:09;;;;;;;6.87;2.40;;;7.90;99.90;;;;;;5049120;28;20743;-67
2022/01/20 12:42:41;;;;;;;10.23;2.63;;;8.00;99.90;;;;;;5055706;28;20223;-67
2022/01/20 12:47:52;;;;;;;13.90;2.50;;;8.30;99.90;;;;;;5044311;28;20193;-67
2022/01/20 12:50:22;;;;;;;10.07;2.27;;;8.30;99.90;;;;;;5050334;28;20207;-66
2022/01/20 12:52:51;;;;;;;9.17;2.10;;;8.20;99.90;;;;;;5046727;28;20247;-67
2022/01/20 12:55:20;;;;;;;6.90;1.70;;;8.20;99.90;;;;;;5046343;28;20201;-67
2022/01/20 12:57:59;;;;;;;8.30;2.30;;;8.30;99.90;;;;;;5046604;28;20251;-66
2022/01/20 13:00:27;;;;;;;5.40;1.93;;;8.30;99.90;;;;;;5045377;28;20192;-66
2022/01/20 13:02:56;;;;;;;8.67;2.00;;;8.30;99.90;;;;;;5036714;28;20204;-66
2022/01/20 13:05:28;;;;;;;7.47;2.40;;;8.40;99.90;;;;;;5043178;28;20204;-66
2022/01/20 13:07:58;;;;;;;8.60;2.33;;;8.40;99.90;;;;;;5047832;28;20683;-66
2022/01/20 13:10:33;;;;;;;6.50;2.47;;;8.40;99.90;;;;;;5044270;28;20263;-67
2022/01/20 13:13:05;;;;;;;6.53;2.50;;;8.40;99.90;;;;;;5038867;28;20270;-66
2022/01/20 13:15:34;;;;;;;6.57;2.47;;;8.40;99.90;;;;;;5047468;28;20203;-67
2022/01/20 13:18:05;;;;;;;8.23;2.53;;;8.50;99.90;;;;;;5046447;28;20228;-66
2022/01/20 13:20:40;;;;;;;7.40;2.03;;;8.60;99.90;;;;;;5046838;28;20197;-66
2022/01/20 13:23:54;;;;;;;7.93;2.20;;;8.60;99.90;;;;;;5043980;28;20210;-66
2022/01/20 13:26:04;;;;;;;7.03;1.77;;;8.60;99.90;;;;;;5045450;28;20204;-67
2022/01/20 13:28:33;;;;;;;6.27;2.20;;;8.80;99.90;;;;;;5043081;28;20200;-66
2022/01/20 13:31:14;;;;;;;6.43;1.97;;;9.00;99.90;;;;;;5049006;28;20258;-66
2022/01/20 13:33:43;;;;;;;10.80;1.80;;;9.10;99.90;;;;;;5046203;28;20229;-66
2022/01/20 13:36:12;;;;;;;6.87;2.07;;;9.20;99.90;;;;;;5049968;28;20224;-67
2022/01/20 13:38:47;;;;;;;7.17;2.47;;;9.10;99.90;;;;;;5043734;28;20210;-66
2022/01/20 13:41:19;;;;;;;10.47;2.10;;;8.70;99.90;;;;;;5051785;28;20213;-66
2022/01/20 13:47:00;;;;;;;8.07;2.00;;;8.10;99.90;;;;;;5007910;28;20289;-66
2022/01/20 13:49:28;;;;;;;12.53;2.40;;;7.70;99.90;;;;;;5034403;28;20207;-66
2022/01/20 13:52:03;;;;;;;5.27;1.83;;;7.60;99.90;;;;;;5038682;28;20285;-66
2022/01/20 13:54:39;;;;;;;6.57;2.13;;;7.30;99.90;;;;;;5043488;28;20235;-66
2022/01/20 13:57:37;;;;;;;5.63;2.20;;;7.20;99.90;;;;;;5049254;28;20249;-66
2022/01/20 14:00:07;;;;;;;7.30;2.23;;;7.00;99.90;;;;;;5045529;28;20254;-66
2022/01/20 14:02:36;;;;;;;11.73;2.87;;;6.90;99.90;;;;;;5027058;28;20674;-66
2022/01/20 14:05:06;;;;;;;9.30;2.90;;;6.80;99.90;;;;;;5049756;28;20211;-67
2022/01/20 14:07:35;;;;;;;8.53;2.43;;;6.70;99.90;;;;;;5044695;28;20197;-66
2022/01/20 14:10:05;;;;;;;9.00;2.60;;;6.70;99.90;;;;;;5044814;28;20677;-66
2022/01/20 14:12:34;;;;;;;16.97;3.43;;;6.70;99.90;;;;;;5041039;28;20212;-67
2022/01/20 14:15:02;;;;;;;14.43;2.53;;;6.70;99.90;;;;;;5049804;28;20216;-67
2022/01/20 14:17:35;;;;;;;13.27;2.93;;;6.60;99.90;;;;;;5034626;28;20367;-66
2022/01/20 14:20:08;;;;;;;8.30;2.47;;;6.60;99.90;;;;;;5039503;28;20311;-66
2022/01/20 14:22:38;;;;;;;15.40;2.40;;;6.50;99.90;;;;;;5050952;28;20687;-66
2022/01/20 14:25:10;;;;;;;6.20;1.90;;;6.40;99.90;;;;;;5043167;28;20201;-65
2022/01/20 14:27:39;;;;;;;7.40;1.90;;;6.20;99.90;;;;;;5046030;28;20192;-66
2022/01/20 14:30:11;;;;;;;7.23;1.80;;;6.20;99.90;;;;;;5050811;28;20194;-66
2022/01/20 14:32:39;;;;;;;8.30;2.43;;;6.20;99.90;;;;;;5041470;28;20232;-66
2022/01/20 14:35:09;;;;;;;12.10;3.30;;;6.20;99.90;;;;;;5054580;28;20231;-66